createdAt,value
2022-11-19T00:01:08.615Z,16.23
2022-11-19T00:03:36.637Z,15.95
2022-11-19T00:06:12.312Z,15.68
2022-11-19T00:08:39.255Z,15.52
2022-11-19T00:11:09.917Z,16.30
2022-11-19T00:13:37.755Z,14.68
2022-11-19T00:16:06.706Z,15.20
2022-11-19T00:18:33.558Z,14.98
2022-11-19T00:21:06.421Z,15.10
2022-11-19T00:23:33.128Z,16.55
2022-11-19T00:26:06.867Z,15.45
2022-11-19T00:28:33.544Z,15.98
2022-11-19T00:31:01.960Z,14.73
2022-11-19T00:35:57.122Z,12.32
2022-11-19T00:38:23.834Z,15.05
2022-11-19T00:40:50.414Z,14.32
2022-11-19T00:43:35.589Z,15.68
2022-11-19T00:46:02.186Z,14.70
2022-11-19T00:48:28.750Z,13.55
2022-11-19T00:50:55.330Z,14.40
2022-11-19T00:53:22.051Z,14.25
2022-11-19T00:55:48.618Z,13.85
2022-11-19T00:58:15.278Z,14.13
2022-11-19T01:00:41.835Z,14.30
2022-11-19T01:03:08.411Z,15.00
2022-11-19T01:05:34.941Z,14.77
2022-11-19T01:08:01.548Z,15.20
2022-11-19T01:10:28.100Z,14.07
2022-11-19T01:13:13.274Z,15.07
2022-11-19T01:15:39.799Z,14.63
2022-11-19T01:18:06.368Z,13.35
2022-11-19T01:20:32.942Z,14.80
2022-11-19T01:22:59.526Z,13.68
2022-11-19T01:25:26.079Z,13.77
2022-11-19T01:27:52.619Z,13.43
2022-11-19T01:30:19.459Z,13.77
2022-11-19T01:32:46.002Z,14.20
2022-11-19T01:35:12.703Z,13.63
2022-11-19T01:37:39.302Z,14.00
2022-11-19T01:40:06.419Z,12.65
2022-11-19T01:42:54.001Z,12.75
2022-11-19T01:45:27.279Z,13.15
2022-11-19T01:47:54.534Z,14.10
2022-11-19T01:50:22.232Z,13.35
2022-11-19T01:52:49.271Z,13.52
2022-11-19T01:55:17.443Z,14.27
2022-11-19T01:57:43.989Z,13.63
2022-11-19T02:00:11.082Z,13.50
2022-11-19T02:02:37.658Z,13.73
2022-11-19T02:05:04.674Z,13.10
2022-11-19T02:07:34.039Z,13.32
2022-11-19T02:10:02.183Z,13.50
2022-11-19T02:12:28.686Z,13.85
2022-11-19T02:14:55.433Z,12.20
2022-11-19T02:18:02.422Z,14.05
2022-11-19T02:20:43.466Z,13.17
2022-11-19T02:23:47.647Z,13.48
2022-11-19T02:26:39.307Z,13.18
2022-11-19T02:29:25.447Z,12.60
2022-11-19T02:32:05.677Z,12.77
2022-11-19T02:34:46.668Z,12.52
2022-11-19T02:37:30.731Z,12.13
2022-11-19T02:40:11.797Z,13.52
2022-11-19T02:43:05.301Z,13.30
2022-11-19T02:45:40.062Z,14.05
2022-11-19T02:48:10.023Z,12.23
2022-11-19T02:50:42.091Z,12.82
2022-11-19T02:53:08.697Z,12.13
2022-11-19T02:55:36.977Z,12.15
2022-11-19T02:58:10.574Z,13.27
2022-11-19T03:01:04.456Z,12.40
2022-11-19T03:03:50.130Z,12.85
2022-11-19T03:06:19.387Z,12.55
2022-11-19T03:08:46.750Z,11.90
2022-11-19T03:11:21.783Z,13.30
2022-11-19T03:14:19.342Z,14.75
2022-11-19T03:17:09.173Z,13.35
2022-11-19T03:19:43.517Z,12.90
2022-11-19T03:22:16.016Z,12.05
2022-11-19T03:24:46.351Z,12.32
2022-11-19T03:27:21.670Z,13.70
2022-11-19T03:29:50.901Z,11.98
2022-11-19T03:32:21.503Z,13.82
2022-11-19T03:34:51.081Z,12.82
2022-11-19T03:37:19.841Z,13.65
2022-11-19T03:39:47.810Z,13.18
2022-11-19T03:42:16.269Z,13.32
2022-11-19T03:47:13.787Z,12.85
2022-11-19T03:49:43.551Z,12.68
2022-11-19T03:52:19.006Z,11.65
2022-11-19T03:54:45.662Z,12.27
2022-11-19T03:57:15.005Z,13.50
2022-11-19T03:59:41.691Z,13.80
2022-11-19T04:02:09.887Z,13.25
2022-11-19T04:04:37.816Z,12.32
2022-11-19T04:07:09.223Z,12.32
2022-11-19T04:09:35.961Z,12.93
2022-11-19T04:12:03.080Z,12.45
2022-11-19T04:14:29.813Z,12.35
2022-11-19T04:16:56.735Z,12.60
2022-11-19T04:19:23.454Z,12.23
2022-11-19T04:21:50.671Z,12.70
2022-11-19T04:24:17.315Z,12.68
2022-11-19T04:26:43.885Z,12.32
2022-11-19T04:29:10.446Z,12.18
2022-11-19T04:31:37.026Z,12.40
2022-11-19T04:34:03.650Z,12.50
2022-11-19T04:36:30.182Z,12.40
2022-11-19T04:38:56.749Z,12.43
2022-11-19T04:41:23.427Z,12.55
2022-11-19T04:43:49.969Z,12.25
2022-11-19T04:46:16.525Z,13.43
2022-11-19T04:48:43.098Z,12.68
2022-11-19T04:51:09.668Z,12.63
2022-11-19T04:53:36.353Z,12.13
2022-11-19T04:56:02.979Z,11.20
2022-11-19T04:58:29.574Z,12.00
2022-11-19T05:00:56.163Z,10.73
2022-11-19T05:03:22.733Z,12.68
2022-11-19T05:05:49.888Z,11.52
2022-11-19T05:08:16.475Z,11.65
2022-11-19T05:10:44.058Z,11.60
2022-11-19T05:13:10.900Z,11.07
2022-11-19T05:15:37.441Z,12.15
2022-11-19T05:18:04.178Z,11.73
2022-11-19T05:20:30.816Z,12.40
2022-11-19T05:22:57.376Z,11.70
2022-11-19T05:25:23.915Z,11.40
2022-11-19T05:27:50.463Z,12.18
2022-11-19T05:30:17.331Z,11.80
2022-11-19T05:32:43.965Z,11.88
2022-11-19T05:35:10.875Z,11.40
2022-11-19T05:37:37.467Z,11.20
2022-11-19T05:40:04.601Z,11.57
2022-11-19T05:42:31.151Z,11.75
2022-11-19T05:44:57.693Z,10.68
2022-11-19T05:47:24.251Z,11.13
2022-11-19T05:49:50.803Z,10.43
2022-11-19T05:52:17.350Z,10.18
2022-11-19T05:54:43.894Z,10.20
2022-11-19T05:57:10.477Z,10.13
2022-11-19T05:59:43.487Z,10.93
2022-11-19T06:02:10.854Z,11.32
2022-11-19T06:04:37.475Z,10.80
2022-11-19T06:07:04.325Z,10.70
2022-11-19T06:09:30.983Z,11.13
2022-11-19T06:11:57.554Z,10.13
2022-11-19T06:14:25.485Z,10.82
2022-11-19T06:16:57.248Z,9.98
2022-11-19T06:19:24.439Z,10.50
2022-11-19T06:21:51.558Z,10.95
2022-11-19T06:24:18.883Z,11.30
2022-11-19T06:26:45.556Z,11.45
2022-11-19T06:29:14.511Z,12.13
2022-11-19T06:31:41.097Z,11.57
2022-11-19T06:34:07.680Z,10.90
2022-11-19T06:36:40.253Z,12.15
2022-11-19T06:39:08.975Z,11.07
2022-11-19T06:41:35.660Z,11.90
2022-11-19T06:44:02.460Z,10.73
2022-11-19T06:46:29.089Z,11.57
2022-11-19T06:48:55.623Z,12.45
2022-11-19T06:51:22.289Z,11.75
2022-11-19T06:53:48.835Z,12.23
2022-11-19T06:56:15.387Z,11.88
2022-11-19T06:58:42.302Z,11.80
2022-11-19T07:01:08.886Z,11.40
2022-11-19T07:03:35.847Z,11.52
2022-11-19T07:06:04.461Z,10.95
2022-11-19T07:08:34.463Z,10.82
2022-11-19T07:11:02.039Z,12.73
2022-11-19T07:13:51.420Z,11.27
2022-11-19T07:16:17.978Z,10.77
2022-11-19T07:18:44.519Z,11.50
2022-11-19T07:21:11.065Z,9.65
2022-11-19T07:23:37.595Z,12.27
2022-11-19T07:26:04.174Z,11.68
2022-11-19T07:28:30.796Z,11.30
2022-11-19T07:30:57.361Z,10.23
2022-11-19T07:33:23.898Z,11.48
2022-11-19T07:35:50.471Z,11.05
2022-11-19T07:38:17.085Z,11.40
2022-11-19T07:40:43.638Z,10.95
2022-11-19T07:43:10.162Z,12.10
2022-11-19T07:45:37.751Z,12.15
2022-11-19T07:48:04.465Z,11.55
2022-11-19T07:50:31.020Z,10.15
2022-11-19T07:53:00.613Z,9.85
2022-11-19T07:55:27.178Z,10.48
2022-11-19T07:57:54.161Z,9.90
2022-11-19T08:00:20.885Z,9.40
2022-11-19T08:02:47.434Z,9.60
2022-11-19T08:05:14.110Z,10.18
2022-11-19T08:07:41.420Z,8.90
2022-11-19T08:10:09.813Z,9.63
2022-11-19T08:15:03.291Z,8.50
2022-11-19T08:17:48.351Z,10.43
2022-11-19T08:20:17.215Z,9.88
2022-11-19T08:22:43.990Z,9.70
2022-11-19T08:25:10.659Z,9.85
2022-11-19T08:27:37.272Z,9.77
2022-11-19T08:30:04.623Z,10.02
2022-11-19T08:32:31.182Z,8.73
2022-11-19T08:34:57.775Z,9.77
2022-11-19T08:37:24.317Z,9.70
2022-11-19T08:39:50.866Z,9.30
2022-11-19T08:42:36.015Z,8.77
2022-11-19T08:45:02.575Z,9.80
2022-11-19T08:47:29.109Z,8.50
2022-11-19T08:49:55.690Z,9.55
2022-11-19T08:52:22.297Z,8.55
2022-11-19T08:54:48.865Z,10.23
2022-11-19T08:57:15.413Z,9.52
2022-11-19T08:59:42.001Z,9.13
2022-11-19T09:02:10.746Z,8.77
2022-11-19T09:04:37.300Z,8.80
2022-11-19T09:07:03.885Z,8.10
2022-11-19T09:09:31.039Z,8.20
2022-11-19T09:11:57.600Z,8.75
2022-11-19T09:14:24.204Z,8.65
2022-11-19T09:16:50.800Z,7.38
2022-11-19T09:19:17.367Z,7.40
2022-11-19T09:21:43.983Z,8.40
2022-11-19T09:24:10.596Z,7.85
2022-11-19T09:26:37.156Z,7.55
2022-11-19T09:29:03.747Z,8.70
2022-11-19T09:31:30.428Z,7.10
2022-11-19T09:33:56.966Z,7.22
2022-11-19T09:36:23.494Z,8.13
2022-11-19T09:38:50.112Z,7.82
2022-11-19T09:41:38.685Z,7.57
2022-11-19T09:44:24.084Z,7.63
2022-11-19T09:47:09.187Z,8.40
2022-11-19T09:50:11.042Z,7.35
2022-11-19T09:52:42.744Z,7.97
2022-11-19T09:55:15.662Z,7.03
2022-11-19T09:58:01.139Z,7.18
2022-11-19T10:00:30.602Z,7.38
2022-11-19T10:02:58.365Z,7.38
2022-11-19T10:05:30.767Z,7.45
2022-11-19T10:08:23.388Z,7.60
2022-11-19T10:11:21.388Z,7.68
2022-11-19T10:16:21.163Z,5.93
2022-11-19T10:18:53.800Z,6.55
2022-11-19T10:21:43.250Z,6.95
2022-11-19T10:24:22.835Z,6.38
2022-11-19T10:27:19.438Z,6.45
2022-11-19T10:29:46.586Z,6.68
2022-11-19T10:32:36.011Z,6.45
2022-11-19T10:35:08.601Z,6.75
2022-11-19T10:37:39.678Z,5.55
2022-11-19T10:40:13.153Z,6.18
2022-11-19T10:42:47.597Z,6.80
2022-11-19T10:45:19.944Z,5.95
2022-11-19T10:47:52.576Z,6.03
2022-11-19T10:50:21.863Z,5.53
2022-11-19T10:53:17.718Z,4.72
2022-11-19T10:55:54.007Z,5.10
2022-11-19T10:58:34.927Z,6.78
2022-11-19T11:01:03.736Z,4.95
2022-11-19T11:03:49.828Z,5.70
2022-11-19T11:06:17.281Z,5.22
2022-11-19T11:08:52.431Z,5.77
2022-11-19T11:11:23.121Z,5.93
2022-11-19T11:14:08.834Z,24.83
2022-11-19T11:16:53.507Z,13.68
2022-11-19T11:19:21.864Z,7.93
2022-11-19T11:21:52.481Z,6.20
2022-11-19T11:24:19.346Z,6.28
2022-11-19T11:26:45.908Z,6.18
2022-11-19T11:29:12.678Z,5.53
2022-11-19T11:31:44.749Z,5.45
2022-11-19T11:34:29.855Z,4.82
2022-11-19T11:36:56.812Z,4.68
2022-11-19T11:39:28.958Z,4.90
2022-11-19T11:42:17.686Z,5.03
2022-11-19T11:44:52.272Z,5.45
2022-11-19T11:47:36.053Z,5.32
2022-11-19T11:50:09.227Z,5.25
2022-11-19T11:52:45.464Z,5.18
2022-11-19T11:55:31.829Z,4.95
2022-11-19T11:58:01.099Z,5.18
2022-11-19T12:00:29.872Z,6.28
2022-11-19T12:03:11.436Z,6.63
2022-11-19T12:05:44.881Z,9.48
2022-11-19T12:08:25.579Z,7.43
2022-11-19T12:11:25.066Z,6.70
2022-11-19T12:14:05.460Z,5.68
2022-11-19T12:17:24.058Z,7.47
2022-11-19T12:20:02.473Z,9.48
2022-11-19T12:22:34.770Z,9.73
2022-11-19T12:25:30.459Z,16.17
2022-11-19T12:28:18.722Z,20.58
2022-11-19T12:33:40.547Z,8.13
2022-11-19T12:36:19.252Z,9.45
2022-11-19T12:38:56.425Z,8.73
2022-11-19T12:41:47.747Z,7.15
2022-11-19T12:44:23.326Z,7.18
2022-11-19T12:47:15.617Z,6.15
2022-11-19T12:49:48.118Z,8.40
2022-11-19T12:52:27.590Z,6.20
2022-11-19T12:55:12.779Z,6.43
2022-11-19T12:57:46.459Z,5.80
2022-11-19T13:00:19.292Z,6.38
2022-11-19T13:02:59.318Z,6.70
2022-11-19T13:05:47.040Z,5.95
2022-11-19T13:08:38.156Z,6.55
2022-11-19T13:11:04.669Z,6.72
2022-11-19T13:13:32.147Z,5.38
2022-11-19T13:16:09.639Z,5.67
2022-11-19T13:18:40.284Z,5.20
2022-11-19T13:21:17.238Z,6.07
2022-11-19T13:23:46.017Z,5.28
2022-11-19T13:26:32.178Z,4.72
2022-11-19T13:29:36.046Z,5.93
2022-11-19T13:32:12.516Z,5.20
2022-11-19T13:34:49.505Z,5.47
2022-11-19T13:37:22.800Z,4.85
2022-11-19T13:39:53.887Z,5.13
2022-11-19T13:42:39.487Z,4.78
2022-11-19T13:45:07.187Z,4.25
2022-11-19T13:48:00.842Z,5.20
2022-11-19T13:50:33.589Z,3.92
2022-11-19T13:53:13.726Z,4.53
2022-11-19T13:55:42.087Z,4.00
2022-11-19T13:58:14.835Z,4.95
2022-11-19T14:00:43.535Z,4.90
2022-11-19T14:03:22.507Z,5.18
2022-11-19T14:05:56.061Z,4.78
2022-11-19T14:08:54.042Z,4.65
2022-11-19T14:11:58.360Z,4.05
2022-11-19T14:14:58.562Z,5.10
2022-11-19T14:17:54.970Z,4.45
2022-11-19T14:20:50.702Z,4.80
2022-11-19T14:23:57.544Z,4.40
2022-11-19T14:26:42.296Z,4.47
2022-11-19T14:29:26.871Z,4.50
2022-11-19T14:32:16.383Z,4.40
2022-11-19T14:35:01.215Z,4.13
2022-11-19T14:37:36.714Z,5.28
2022-11-19T14:40:12.441Z,3.78
2022-11-19T14:43:26.617Z,3.80
2022-11-19T14:46:02.827Z,3.45
2022-11-19T14:48:30.557Z,4.38
2022-11-19T14:51:04.678Z,3.75
2022-11-19T14:53:31.411Z,4.38
2022-11-19T14:55:59.173Z,4.00
2022-11-19T14:58:26.038Z,4.25
2022-11-19T15:01:07.202Z,4.03
2022-11-19T15:03:34.551Z,3.70
2022-11-19T15:06:02.886Z,4.25
2022-11-19T15:08:42.035Z,4.40
2022-11-19T15:11:10.352Z,4.40
2022-11-19T15:13:40.839Z,3.80
2022-11-19T15:16:26.663Z,4.47
2022-11-19T15:19:18.982Z,3.72
2022-11-19T15:22:16.488Z,3.88
2022-11-19T15:24:59.030Z,3.77
2022-11-19T15:27:46.935Z,3.65
2022-11-19T15:30:50.503Z,3.92
2022-11-19T15:33:37.901Z,3.65
2022-11-19T15:36:07.139Z,4.43
2022-11-19T15:38:57.060Z,4.97
2022-11-19T15:41:26.226Z,4.25
2022-11-19T15:43:58.577Z,4.10
2022-11-19T15:46:49.762Z,4.20
2022-11-19T15:49:16.290Z,4.25
2022-11-19T15:51:56.944Z,4.40
2022-11-19T15:54:32.400Z,4.53
2022-11-19T15:57:02.904Z,5.20
2022-11-19T15:59:31.063Z,4.53
2022-11-19T16:01:59.702Z,4.25
2022-11-19T16:04:30.965Z,4.43
2022-11-19T16:06:57.582Z,4.43
2022-11-19T16:09:25.186Z,4.53
2022-11-19T16:12:10.491Z,4.78
2022-11-19T16:14:55.686Z,4.70
2022-11-19T16:17:43.150Z,4.43
2022-11-19T16:20:10.391Z,4.35
2022-11-19T16:23:00.913Z,4.40
2022-11-19T16:25:27.450Z,5.63
2022-11-19T16:27:57.168Z,5.13
2022-11-19T16:30:26.047Z,5.13
2022-11-19T16:32:56.294Z,4.90
2022-11-19T16:35:25.851Z,5.53
2022-11-19T16:37:53.551Z,5.20
2022-11-19T16:40:20.617Z,5.25
2022-11-19T16:42:57.806Z,5.63
2022-11-19T16:45:29.227Z,5.45
2022-11-19T16:47:57.787Z,5.25
2022-11-19T16:50:32.399Z,5.15
2022-11-19T16:53:00.534Z,5.20
2022-11-19T16:55:28.842Z,5.53
2022-11-19T16:58:03.250Z,5.07
2022-11-19T17:00:32.166Z,6.07
2022-11-19T17:02:58.801Z,5.25
2022-11-19T17:05:28.592Z,4.95
2022-11-19T17:08:20.582Z,5.13
2022-11-19T17:10:47.150Z,5.28
2022-11-19T17:13:19.621Z,5.55
2022-11-19T17:15:47.743Z,7.50
2022-11-19T17:18:17.287Z,6.07
2022-11-19T17:20:43.810Z,7.57
2022-11-19T17:23:15.867Z,9.50
2022-11-19T17:25:51.337Z,10.50
2022-11-19T17:28:36.549Z,6.82
2022-11-19T17:31:06.789Z,7.25
2022-11-19T17:33:36.564Z,7.15
2022-11-19T17:36:03.633Z,7.15
2022-11-19T17:38:31.412Z,6.20
2022-11-19T17:40:59.946Z,7.15
2022-11-19T17:43:53.012Z,6.40
2022-11-19T17:46:20.374Z,6.40
2022-11-19T17:48:48.318Z,5.68
2022-11-19T17:51:17.336Z,6.90
2022-11-19T17:53:44.179Z,7.25
2022-11-19T17:56:25.378Z,6.82
2022-11-19T17:58:52.285Z,6.88
2022-11-19T18:01:19.159Z,7.45
2022-11-19T18:03:46.814Z,6.63
2022-11-19T18:06:16.518Z,8.07
2022-11-19T18:08:43.558Z,6.15
2022-11-19T18:11:16.922Z,6.32
2022-11-19T18:13:44.963Z,6.80
2022-11-19T18:16:17.091Z,6.05
2022-11-19T18:18:43.723Z,7.35
2022-11-19T18:21:15.177Z,8.30
2022-11-19T18:23:43.069Z,8.15
2022-11-19T18:26:14.288Z,7.72
2022-11-19T18:28:44.972Z,7.20
2022-11-19T18:31:28.315Z,6.70
2022-11-19T18:33:56.142Z,7.50
2022-11-19T18:36:24.455Z,8.05
2022-11-19T18:41:21.502Z,9.07
2022-11-19T18:44:06.768Z,9.82
2022-11-19T18:46:33.311Z,9.75
2022-11-19T18:48:59.916Z,7.50
2022-11-19T18:51:27.768Z,7.38
2022-11-19T18:53:54.306Z,7.10
2022-11-19T18:56:20.902Z,8.02
2022-11-19T18:58:47.526Z,7.43
2022-11-19T19:01:16.275Z,8.18
2022-11-19T19:03:43.027Z,7.85
2022-11-19T19:06:09.952Z,8.40
2022-11-19T19:08:36.820Z,8.30
2022-11-19T19:11:26.214Z,7.85
2022-11-19T19:13:53.103Z,10.27
2022-11-19T19:16:19.777Z,12.90
2022-11-19T19:18:46.490Z,14.02
2022-11-19T19:21:14.303Z,12.93
2022-11-19T19:23:41.589Z,11.27
2022-11-19T19:26:09.242Z,10.65
2022-11-19T19:28:35.965Z,9.05
2022-11-19T19:31:02.705Z,8.90
2022-11-19T19:33:30.081Z,10.27
2022-11-19T19:35:56.995Z,8.90
2022-11-19T19:38:23.868Z,9.88
2022-11-19T19:40:50.522Z,8.32
2022-11-19T19:43:17.796Z,7.55
2022-11-19T19:45:44.476Z,6.35
2022-11-19T19:48:11.079Z,7.22
2022-11-19T19:50:37.685Z,7.72
2022-11-19T19:53:04.899Z,7.85
2022-11-19T19:55:31.446Z,8.07
2022-11-19T19:57:58.049Z,7.53
2022-11-19T20:00:24.706Z,6.28
2022-11-19T20:02:51.363Z,6.63
2022-11-19T20:05:17.919Z,6.57
2022-11-19T20:07:44.518Z,6.80
2022-11-19T20:10:11.141Z,6.38
2022-11-19T20:12:56.324Z,7.18
2022-11-19T20:15:22.895Z,7.05
2022-11-19T20:17:49.513Z,7.03
2022-11-19T20:20:16.161Z,6.93
2022-11-19T20:22:42.703Z,8.35
2022-11-19T20:25:09.278Z,8.23
2022-11-19T20:27:35.946Z,7.75
2022-11-19T20:30:03.539Z,7.78
2022-11-19T20:32:30.349Z,9.30
2022-11-19T20:34:56.891Z,10.73
2022-11-19T20:37:23.495Z,11.98
2022-11-19T20:39:50.059Z,13.02
2022-11-19T20:42:35.043Z,12.27
2022-11-19T20:45:01.915Z,10.43
2022-11-19T20:47:28.548Z,9.05
2022-11-19T20:49:55.103Z,9.02
2022-11-19T20:52:23.013Z,8.18
2022-11-19T20:54:51.190Z,8.20
2022-11-19T20:57:18.878Z,8.45
2022-11-19T20:59:45.518Z,8.43
2022-11-19T21:02:12.219Z,8.25
2022-11-19T21:04:38.754Z,9.15
2022-11-19T21:07:05.919Z,9.10
2022-11-19T21:09:33.523Z,7.40
2022-11-19T21:12:00.184Z,7.25
2022-11-19T21:14:26.867Z,7.57
2022-11-19T21:16:53.427Z,7.28
2022-11-19T21:19:20.315Z,7.45
2022-11-19T21:21:47.141Z,7.28
2022-11-19T21:24:13.837Z,8.93
2022-11-19T21:26:40.633Z,9.40
2022-11-19T21:29:07.865Z,9.57
2022-11-19T21:31:39.745Z,9.43
2022-11-19T21:34:08.128Z,8.77
2022-11-19T21:39:01.497Z,6.45
2022-11-19T21:41:28.055Z,5.50
2022-11-19T21:43:54.610Z,6.63
2022-11-19T21:46:21.238Z,6.03
2022-11-19T21:48:47.791Z,6.07
2022-11-19T21:51:14.355Z,5.90
2022-11-19T21:53:40.895Z,5.72
2022-11-19T21:56:07.838Z,6.47
2022-11-19T21:58:34.378Z,6.57
2022-11-19T22:01:02.201Z,5.82
2022-11-19T22:03:31.256Z,6.90
2022-11-19T22:06:02.556Z,5.88
2022-11-19T22:08:35.606Z,5.93
2022-11-19T22:11:25.388Z,6.57
2022-11-19T22:13:53.164Z,6.15
2022-11-19T22:16:20.410Z,5.47
2022-11-19T22:18:46.979Z,5.60
2022-11-19T22:21:13.786Z,5.90
2022-11-19T22:23:40.971Z,6.15
2022-11-19T22:26:09.296Z,7.00
2022-11-19T22:31:02.477Z,12.88
2022-11-19T22:33:39.609Z,34.17
2022-11-19T22:36:10.086Z,16.95
2022-11-19T22:38:38.243Z,10.20
2022-11-19T22:41:13.464Z,8.93
2022-11-19T22:43:41.470Z,9.70
2022-11-19T22:46:09.535Z,9.75
2022-11-19T22:48:36.881Z,11.18
2022-11-19T22:51:23.465Z,9.70
2022-11-19T22:53:51.303Z,7.93
2022-11-19T22:56:23.877Z,8.40
2022-11-19T22:58:50.999Z,8.93
2022-11-19T23:01:19.586Z,12.88
2022-11-19T23:03:46.320Z,17.00
2022-11-19T23:06:13.278Z,13.07
2022-11-19T23:08:40.126Z,11.95
2022-11-19T23:11:07.369Z,10.07
2022-11-19T23:13:36.330Z,8.95
2022-11-19T23:16:13.070Z,9.48
2022-11-19T23:18:42.429Z,7.38
2022-11-19T23:21:11.661Z,7.45
2022-11-19T23:23:38.262Z,9.90
2022-11-19T23:26:06.641Z,8.90
2022-11-19T23:28:34.491Z,8.43
2022-11-19T23:31:10.666Z,8.18
2022-11-19T23:33:37.383Z,7.45
2022-11-19T23:36:06.362Z,6.28
2022-11-19T23:38:34.658Z,6.25
2022-11-19T23:43:28.658Z,5.68
2022-11-19T23:45:57.630Z,6.30
2022-11-19T23:48:24.223Z,6.85
2022-11-19T23:50:50.809Z,6.70
2022-11-19T23:53:17.352Z,6.72
2022-11-19T23:55:47.629Z,6.53
2022-11-19T23:58:14.230Z,6.78
